Skip Navigation LinksHome page > Weather > Current weather Skip Navigation Links

Current Weather

San Francisco International, San Francisco

For information only: do not use for flight planning or navigation.
Latest weather
Observation time Friday, June 23, 2017 12:56 PM PDT
Local time Friday, June 23, 2017 1:38 PM PDT
Flight conditions Visual Meteorological Conditions
Winds
Wind direction North (360°)
Wind speed 9 mph
Visibility 10 mi.
Sky condition
Ceiling unlimited
Sky clear
Temperature 72°F
Dewpoint 57°F
Altimeter 29.91 in.Hg
Derived measurements
Relative humidity 59%
Density altitude 1086 ft.
Sea-level pressure 29.91 in.Hg
Remarks
Automated weather observing station with precipitation discriminator.
METAR KSFO 231956Z 36008KT 10SM CLR 22/14 A2991 RMK AO2 SLP127 T02220139

Settings

Location code

InnerDrive.Weather 4.0.6144.1 Release CLR 4.0.30319.36366
Copyright ©2015 Inner Drive Technology. All rights reserved. Portions Copyright ©1986-2015 David Braverman.

Find weather

Site navigation


Skip Navigation Links

Place info

Page info

PayPal - The safer, easier way to pay online!

Return home.

Copyright ©2017 Inner Drive Technology. Purveyors of fine, hand-crafted computer software. Page printed 2017-06-23T20:38:34 UTC.